createdAt,value
2023-07-03T00:00:19.606Z,47.80
2023-07-03T00:00:43.741Z,49.60
2023-07-03T00:01:07.314Z,45.30
2023-07-03T00:01:30.159Z,69.40
2023-07-03T00:01:52.973Z,50.10
2023-07-03T00:02:16.093Z,54.10
2023-07-03T00:02:39.763Z,58.20
2023-07-03T00:03:03.371Z,57.50
2023-07-03T00:03:26.299Z,50.40
2023-07-03T00:03:53.042Z,42.30
2023-07-03T00:04:16.390Z,35.60
2023-07-03T00:04:39.669Z,27.60
2023-07-03T00:05:04.762Z,23.30
2023-07-03T00:05:28.121Z,13.90
2023-07-03T00:05:51.212Z,28.80
2023-07-03T00:06:16.512Z,26.70
2023-07-03T00:06:39.291Z,25.90
2023-07-03T00:07:02.083Z,27.10
2023-07-03T00:07:24.814Z,25.30
2023-07-03T00:07:48.347Z,25.20
2023-07-03T00:08:11.541Z,24.70
2023-07-03T00:08:34.802Z,22.70
2023-07-03T00:08:57.554Z,22.00
2023-07-03T00:09:20.355Z,22.80
2023-07-03T00:09:43.226Z,21.20
2023-07-03T00:10:07.961Z,19.50
2023-07-03T00:10:33.587Z,16.90
2023-07-03T00:11:01.061Z,20.10
2023-07-03T00:11:23.925Z,18.90
2023-07-03T00:11:46.800Z,20.20
2023-07-03T00:12:11.433Z,22.00
2023-07-03T00:12:34.209Z,24.50
2023-07-03T00:13:00.123Z,22.90
2023-07-03T00:13:22.918Z,28.50
2023-07-03T00:13:45.831Z,31.20
2023-07-03T00:14:08.829Z,28.80
2023-07-03T00:14:31.619Z,29.90
2023-07-03T00:14:56.862Z,31.00
2023-07-03T00:15:19.906Z,30.00
2023-07-03T00:15:43.882Z,33.70
2023-07-03T00:16:06.896Z,32.40
2023-07-03T00:16:29.829Z,33.30
2023-07-03T00:16:52.801Z,30.20
2023-07-03T00:17:15.756Z,34.50
2023-07-03T00:17:39.752Z,32.30
2023-07-03T00:18:02.896Z,34.10
2023-07-03T00:18:25.706Z,31.60
2023-07-03T00:18:51.691Z,30.30
2023-07-03T00:19:15.116Z,26.90
2023-07-03T00:19:37.865Z,28.40
2023-07-03T00:20:00.583Z,30.00
2023-07-03T00:20:23.309Z,27.20
2023-07-03T00:20:46.931Z,26.50
2023-07-03T00:21:09.879Z,30.00
2023-07-03T00:21:44.652Z,34.30
2023-07-03T00:22:07.590Z,35.30
2023-07-03T00:22:30.401Z,38.80
2023-07-03T00:22:54.136Z,36.50
2023-07-03T00:23:16.918Z,40.30
2023-07-03T00:23:39.743Z,35.80
2023-07-03T00:24:02.471Z,36.70
2023-07-03T00:24:25.220Z,34.20
2023-07-03T00:24:48.095Z,33.70
2023-07-03T00:25:11.062Z,35.40
2023-07-03T00:25:34.244Z,35.50
2023-07-03T00:25:57.069Z,31.30
2023-07-03T00:26:22.793Z,30.40
2023-07-03T00:26:45.651Z,27.50
2023-07-03T00:27:08.409Z,27.40
2023-07-03T00:27:31.198Z,29.00
2023-07-03T00:27:55.436Z,29.40
2023-07-03T00:28:18.131Z,41.70
2023-07-03T00:28:40.945Z,29.30
2023-07-03T00:29:03.847Z,28.70
2023-07-03T00:29:30.482Z,26.60
2023-07-03T00:29:54.138Z,27.30
2023-07-03T00:30:17.183Z,28.70
2023-07-03T00:30:39.932Z,28.80
2023-07-03T00:31:02.691Z,26.60
2023-07-03T00:31:25.607Z,27.20
2023-07-03T00:31:48.473Z,26.00
2023-07-03T00:32:11.338Z,27.00
2023-07-03T00:32:34.285Z,26.40
2023-07-03T00:32:57.497Z,33.60
2023-07-03T00:33:20.436Z,17.80
2023-07-03T00:33:43.252Z,22.60
2023-07-03T00:34:05.973Z,16.40
2023-07-03T00:34:29.718Z,23.10
2023-07-03T00:34:52.449Z,17.40
2023-07-03T00:35:15.404Z,17.20
2023-07-03T00:35:38.295Z,22.20
2023-07-03T00:36:01.132Z,23.10
2023-07-03T00:36:24.003Z,25.70
2023-07-03T00:36:48.701Z,24.90
2023-07-03T00:37:11.574Z,23.20
2023-07-03T00:37:34.505Z,26.90
2023-07-03T00:37:57.325Z,23.90
2023-07-03T00:38:20.097Z,29.00
2023-07-03T00:38:42.899Z,24.20
2023-07-03T00:39:05.834Z,28.40
2023-07-03T00:39:28.765Z,26.40
2023-07-03T00:39:51.475Z,28.40
2023-07-03T00:40:14.947Z,25.60
2023-07-03T00:40:37.751Z,27.10
2023-07-03T00:41:00.589Z,22.80
2023-07-03T00:41:23.416Z,29.30
2023-07-03T00:41:46.263Z,29.50
2023-07-03T00:42:09.157Z,26.40
2023-07-03T00:42:32.030Z,28.50
2023-07-03T00:42:54.930Z,28.70
2023-07-03T00:43:18.951Z,28.00
2023-07-03T00:43:44.713Z,29.50
2023-07-03T00:44:10.265Z,28.40
2023-07-03T00:44:33.099Z,30.90
2023-07-03T00:44:55.946Z,31.20
2023-07-03T00:45:19.586Z,34.60
2023-07-03T00:45:42.876Z,34.80
2023-07-03T00:46:05.699Z,34.00
2023-07-03T00:46:28.524Z,32.50
2023-07-03T00:46:51.697Z,31.30
2023-07-03T00:47:14.693Z,37.80
2023-07-03T00:47:38.533Z,41.40
2023-07-03T00:48:01.928Z,40.80
2023-07-03T00:48:24.903Z,39.10
2023-07-03T00:48:47.836Z,41.10
2023-07-03T00:49:11.257Z,40.50
2023-07-03T00:49:33.965Z,39.80
2023-07-03T00:49:56.831Z,43.90
2023-07-03T00:50:20.009Z,47.60
2023-07-03T00:50:42.874Z,49.70
2023-07-03T00:51:05.786Z,48.40
2023-07-03T00:51:29.182Z,51.30
2023-07-03T00:51:53.983Z,56.00
2023-07-03T00:52:17.137Z,57.40
2023-07-03T00:52:40.026Z,60.30
2023-07-03T00:53:04.641Z,70.10
2023-07-03T00:53:27.451Z,59.60
2023-07-03T00:53:50.247Z,60.50
2023-07-03T00:54:13.034Z,64.80
2023-07-03T00:54:35.779Z,64.20
2023-07-03T00:54:59.431Z,58.70
2023-07-03T00:55:22.377Z,57.90
2023-07-03T00:55:45.266Z,65.30
2023-07-03T00:56:08.254Z,64.70
2023-07-03T00:56:32.059Z,64.30
2023-07-03T00:56:54.831Z,69.30
2023-07-03T00:57:17.734Z,81.70
2023-07-03T00:57:41.326Z,80.30
2023-07-03T00:58:04.141Z,85.60
2023-07-03T00:58:27.692Z,82.30
2023-07-03T00:58:50.452Z,86.60
2023-07-03T00:59:13.278Z,90.00
2023-07-03T00:59:36.208Z,87.40
2023-07-03T00:59:59.139Z,90.20
2023-07-03T01:00:23.515Z,84.30
2023-07-03T01:00:48.335Z,83.20
2023-07-03T01:01:16.901Z,84.10
2023-07-03T01:01:45.072Z,87.50
2023-07-03T01:02:11.302Z,90.40
2023-07-03T01:02:37.303Z,90.80
2023-07-03T01:03:03.157Z,93.10
2023-07-03T01:03:28.241Z,89.80
2023-07-03T01:03:53.664Z,96.40
2023-07-03T01:04:18.911Z,88.90
2023-07-03T01:04:45.305Z,90.20
2023-07-03T01:05:11.197Z,94.80
2023-07-03T01:05:35.634Z,91.70
2023-07-03T01:05:58.796Z,93.50
2023-07-03T01:06:26.378Z,93.30
2023-07-03T01:06:52.702Z,92.20
2023-07-03T01:07:19.909Z,92.40
2023-07-03T01:07:42.973Z,97.10
2023-07-03T01:08:05.829Z,95.40
2023-07-03T01:08:28.553Z,91.60
2023-07-03T01:08:53.338Z,93.50
2023-07-03T01:09:17.560Z,94.30
2023-07-03T01:09:46.333Z,94.00
2023-07-03T01:10:10.801Z,94.10
2023-07-03T01:10:33.585Z,96.90
2023-07-03T01:10:56.468Z,99.90
2023-07-03T01:11:19.395Z,98.60
2023-07-03T01:11:42.283Z,97.60
2023-07-03T01:12:07.584Z,96.10
2023-07-03T01:12:31.745Z,94.80
2023-07-03T01:12:56.105Z,96.80
2023-07-03T01:13:18.950Z,97.70
2023-07-03T01:13:41.731Z,97.50
2023-07-03T01:14:04.637Z,99.90
2023-07-03T01:14:27.470Z,99.90
2023-07-03T01:14:50.254Z,99.90
2023-07-03T01:15:14.171Z,99.90
2023-07-03T01:15:39.267Z,99.90
2023-07-03T01:16:02.483Z,99.90
2023-07-03T01:16:25.405Z,99.90
2023-07-03T01:16:49.432Z,99.90
2023-07-03T01:17:12.389Z,99.90
2023-07-03T01:17:35.233Z,99.90
2023-07-03T01:17:58.959Z,99.90
2023-07-03T01:18:21.961Z,99.90
2023-07-03T01:18:44.993Z,99.90
2023-07-03T01:19:11.476Z,99.90
2023-07-03T01:19:34.304Z,99.90
2023-07-03T01:19:57.130Z,99.90
2023-07-03T01:20:20.459Z,99.90
2023-07-03T01:20:45.333Z,99.90
2023-07-03T01:21:10.908Z,99.90
2023-07-03T01:21:38.262Z,99.90
2023-07-03T01:22:03.560Z,99.90
2023-07-03T01:22:29.882Z,99.90
2023-07-03T01:22:57.409Z,99.90
2023-07-03T01:23:23.354Z,99.90
2023-07-03T01:23:48.910Z,99.90
2023-07-03T01:24:13.259Z,99.90
2023-07-03T01:24:41.850Z,99.90
2023-07-03T01:25:06.921Z,99.90
2023-07-03T01:25:29.947Z,99.90
2023-07-03T01:25:53.056Z,99.90
2023-07-03T01:26:16.395Z,99.90
2023-07-03T01:26:39.165Z,99.90
2023-07-03T01:27:02.796Z,99.90
2023-07-03T01:27:38.021Z,99.90
2023-07-03T01:28:00.859Z,99.90
2023-07-03T01:28:24.183Z,99.90
2023-07-03T01:28:49.539Z,99.90
2023-07-03T01:29:12.434Z,99.90
2023-07-03T01:29:35.259Z,99.90
2023-07-03T01:29:58.031Z,99.90
2023-07-03T01:30:21.185Z,99.90
2023-07-03T01:30:44.123Z,99.90
2023-07-03T01:31:09.207Z,99.90
2023-07-03T01:31:33.529Z,99.90
2023-07-03T01:31:56.413Z,99.90
2023-07-03T01:32:21.164Z,99.90
2023-07-03T01:32:44.616Z,99.90
2023-07-03T01:33:07.732Z,99.90
2023-07-03T01:33:32.658Z,99.90
2023-07-03T01:33:55.900Z,99.90
2023-07-03T01:34:18.619Z,99.90
2023-07-03T01:34:46.906Z,99.90
2023-07-03T01:35:10.290Z,99.90
2023-07-03T01:35:36.240Z,99.90
2023-07-03T01:35:58.992Z,99.90
2023-07-03T01:36:21.770Z,99.90
2023-07-03T01:36:45.079Z,99.90
2023-07-03T01:37:08.095Z,99.90
2023-07-03T01:37:31.271Z,99.90
2023-07-03T01:37:54.319Z,99.90
2023-07-03T01:38:17.283Z,99.90
2023-07-03T01:38:41.500Z,99.90
2023-07-03T01:39:04.545Z,99.90
2023-07-03T01:39:27.891Z,99.90
2023-07-03T01:39:52.874Z,99.90
2023-07-03T01:40:17.396Z,99.90
2023-07-03T01:40:40.215Z,99.90
2023-07-03T01:41:03.590Z,99.90
2023-07-03T01:41:26.329Z,99.90
2023-07-03T01:41:49.220Z,99.90
2023-07-03T01:42:12.153Z,99.90
2023-07-03T01:42:37.352Z,99.90
2023-07-03T01:43:00.149Z,99.90
2023-07-03T01:43:22.929Z,99.90
2023-07-03T01:43:45.956Z,99.90
2023-07-03T01:44:08.815Z,99.90
2023-07-03T01:44:31.575Z,99.90
2023-07-03T01:44:54.356Z,99.90
2023-07-03T01:45:17.429Z,99.90
2023-07-03T01:45:43.054Z,99.90
2023-07-03T01:46:06.262Z,99.90
2023-07-03T01:46:29.380Z,99.90
2023-07-03T01:46:52.444Z,99.90
2023-07-03T01:47:15.572Z,99.90
2023-07-03T01:47:38.496Z,99.90
2023-07-03T01:48:01.378Z,99.90
2023-07-03T01:48:25.505Z,99.90
2023-07-03T01:48:48.374Z,99.90
2023-07-03T01:49:12.990Z,99.90
2023-07-03T01:49:35.903Z,99.90
2023-07-03T01:49:58.670Z,99.90
2023-07-03T01:50:23.114Z,99.90
2023-07-03T01:50:46.774Z,99.90
2023-07-03T01:51:12.875Z,99.90
2023-07-03T01:51:38.730Z,99.90
2023-07-03T01:52:05.855Z,99.90
2023-07-03T01:52:31.921Z,99.90
2023-07-03T01:52:56.840Z,99.90
2023-07-03T01:53:22.941Z,99.90
2023-07-03T01:53:47.967Z,99.90
2023-07-03T01:54:13.276Z,99.90
2023-07-03T01:54:42.321Z,99.90
2023-07-03T01:55:09.815Z,99.90
2023-07-03T01:55:36.701Z,99.90
2023-07-03T01:56:04.651Z,99.90
2023-07-03T01:56:29.859Z,99.90
2023-07-03T01:56:52.688Z,99.90
2023-07-03T01:57:17.820Z,99.90
2023-07-03T01:57:45.678Z,99.90
2023-07-03T01:58:10.969Z,99.90
2023-07-03T01:58:36.223Z,99.90
2023-07-03T01:59:01.484Z,99.90
2023-07-03T01:59:26.045Z,99.90
2023-07-03T01:59:49.035Z,99.90
2023-07-03T02:00:15.314Z,99.90
2023-07-03T02:00:41.858Z,99.90
2023-07-03T02:01:06.706Z,99.90
2023-07-03T02:01:32.263Z,99.90
2023-07-03T02:01:59.446Z,99.90
2023-07-03T02:02:24.320Z,99.90
2023-07-03T02:02:48.308Z,99.90
2023-07-03T02:03:18.194Z,99.90
2023-07-03T02:03:44.087Z,99.90
2023-07-03T02:04:08.441Z,99.90
2023-07-03T02:04:33.392Z,99.90
2023-07-03T02:04:59.522Z,99.90
2023-07-03T02:05:24.065Z,99.90
2023-07-03T02:05:46.840Z,99.90
2023-07-03T02:06:15.416Z,99.90
2023-07-03T02:06:39.236Z,99.90
2023-07-03T02:07:03.156Z,99.90
2023-07-03T02:07:26.292Z,99.90
2023-07-03T02:07:49.163Z,99.90
2023-07-03T02:08:15.231Z,99.90
2023-07-03T02:08:38.137Z,99.90
2023-07-03T02:09:01.053Z,99.90
2023-07-03T02:09:23.833Z,99.90
2023-07-03T02:09:47.116Z,99.90
2023-07-03T02:10:11.951Z,99.90
2023-07-03T02:10:34.776Z,99.90
2023-07-03T02:10:57.755Z,99.90
2023-07-03T02:11:21.505Z,99.90
2023-07-03T02:11:46.102Z,99.90
2023-07-03T02:12:11.212Z,99.90
2023-07-03T02:12:34.104Z,99.90
2023-07-03T02:12:57.495Z,99.90
2023-07-03T02:13:20.288Z,99.90
2023-07-03T02:13:43.486Z,99.90
2023-07-03T02:14:07.912Z,99.90
2023-07-03T02:14:30.680Z,99.90
2023-07-03T02:14:53.658Z,99.90
2023-07-03T02:15:16.623Z,99.90
2023-07-03T02:15:39.482Z,99.90
2023-07-03T02:16:02.418Z,99.90
2023-07-03T02:16:25.567Z,99.90
2023-07-03T02:16:48.973Z,99.90
2023-07-03T02:17:13.427Z,99.90
2023-07-03T02:17:37.586Z,99.90
2023-07-03T02:18:00.616Z,99.90
2023-07-03T02:18:24.617Z,99.90
2023-07-03T02:18:48.245Z,99.90
2023-07-03T02:19:15.011Z,99.90
2023-07-03T02:19:37.894Z,99.90
2023-07-03T02:20:00.613Z,99.90
2023-07-03T02:20:23.392Z,99.90
2023-07-03T02:20:46.370Z,99.90
2023-07-03T02:21:09.323Z,99.90
2023-07-03T02:21:32.174Z,99.90
2023-07-03T02:21:55.407Z,99.90
2023-07-03T02:22:18.143Z,99.90
2023-07-03T02:22:40.940Z,99.90
2023-07-03T02:23:06.940Z,99.90
2023-07-03T02:23:30.155Z,99.90
2023-07-03T02:23:52.954Z,99.90
2023-07-03T02:24:15.745Z,99.90
2023-07-03T02:24:38.689Z,99.90
2023-07-03T02:25:01.564Z,99.90
2023-07-03T02:25:26.015Z,99.90
2023-07-03T02:25:49.160Z,99.90
2023-07-03T02:26:12.424Z,99.90
2023-07-03T02:26:35.286Z,99.90
2023-07-03T02:26:58.136Z,99.90
2023-07-03T02:27:21.095Z,99.90
2023-07-03T02:27:46.791Z,99.90
2023-07-03T02:28:09.824Z,99.90
2023-07-03T02:28:32.647Z,99.90
2023-07-03T02:28:55.567Z,99.90
2023-07-03T02:29:18.346Z,99.90
2023-07-03T02:29:42.216Z,99.90
2023-07-03T02:30:06.482Z,99.90
2023-07-03T02:30:29.323Z,99.90
2023-07-03T02:30:52.200Z,99.90
2023-07-03T02:31:15.124Z,99.90
2023-07-03T02:31:38.158Z,99.90
2023-07-03T02:32:00.848Z,99.90
2023-07-03T02:32:23.636Z,99.90
2023-07-03T02:32:46.472Z,99.90
2023-07-03T02:33:09.364Z,99.90
2023-07-03T02:33:32.397Z,99.90
2023-07-03T02:33:55.226Z,99.90
2023-07-03T02:34:18.147Z,99.90
2023-07-03T02:34:40.890Z,99.90
2023-07-03T02:35:04.577Z,99.90
2023-07-03T02:35:27.504Z,99.90
2023-07-03T02:35:50.613Z,99.90
2023-07-03T02:36:13.821Z,99.90
2023-07-03T02:36:39.262Z,99.90
2023-07-03T02:37:02.184Z,99.90
2023-07-03T02:37:24.957Z,99.90
2023-07-03T02:37:49.395Z,99.90
2023-07-03T02:38:12.259Z,99.90
2023-07-03T02:38:35.105Z,99.90
2023-07-03T02:38:59.095Z,99.90
2023-07-03T02:39:21.874Z,99.90
2023-07-03T02:39:44.791Z,99.90
2023-07-03T02:40:14.569Z,99.90
2023-07-03T02:40:39.041Z,99.90
2023-07-03T02:41:03.588Z,99.90
2023-07-03T02:41:26.358Z,99.90
2023-07-03T02:41:49.298Z,99.90
2023-07-03T02:42:12.080Z,99.90
2023-07-03T02:42:34.931Z,99.90
2023-07-03T02:42:58.628Z,99.90
2023-07-03T02:43:21.428Z,99.90
2023-07-03T02:43:44.290Z,99.90
2023-07-03T02:44:07.106Z,99.90
2023-07-03T02:44:29.906Z,99.90
2023-07-03T02:44:52.860Z,99.90
2023-07-03T02:45:15.644Z,99.90
2023-07-03T02:45:39.169Z,99.90
2023-07-03T02:46:04.200Z,99.90
2023-07-03T02:46:27.146Z,99.90
2023-07-03T02:46:50.192Z,99.90
2023-07-03T02:47:13.284Z,99.90
2023-07-03T02:47:36.762Z,99.90
2023-07-03T02:48:00.010Z,99.90
2023-07-03T02:48:22.943Z,99.90
2023-07-03T02:48:46.346Z,99.90
2023-07-03T02:49:09.201Z,99.90
2023-07-03T02:49:32.069Z,99.90
2023-07-03T02:49:54.889Z,99.90
2023-07-03T02:50:17.804Z,99.90
2023-07-03T02:50:40.541Z,99.90
2023-07-03T02:51:03.463Z,99.90
2023-07-03T02:51:26.293Z,99.90
2023-07-03T02:51:49.081Z,99.90
2023-07-03T02:52:12.055Z,99.90
2023-07-03T02:52:34.980Z,99.90
2023-07-03T02:52:57.726Z,99.90
2023-07-03T02:53:20.605Z,99.90
2023-07-03T02:53:43.445Z,99.90
2023-07-03T02:54:06.326Z,99.90
2023-07-03T02:54:29.078Z,99.90
2023-07-03T02:54:51.991Z,99.90
2023-07-03T02:55:15.426Z,99.90
2023-07-03T02:55:42.883Z,99.90
2023-07-03T02:56:06.025Z,99.90
2023-07-03T02:56:29.555Z,99.90
2023-07-03T02:56:52.405Z,99.90
2023-07-03T02:57:15.225Z,99.90
2023-07-03T02:57:38.025Z,99.90
2023-07-03T02:58:00.862Z,99.90
2023-07-03T02:58:25.023Z,99.90
2023-07-03T02:58:47.892Z,99.90
2023-07-03T02:59:10.761Z,99.90
2023-07-03T02:59:33.546Z,99.90
2023-07-03T02:59:56.474Z,99.90
2023-07-03T03:00:19.324Z,99.90
2023-07-03T03:00:43.127Z,99.90
2023-07-03T03:01:06.217Z,99.90
2023-07-03T03:01:32.078Z,99.90
2023-07-03T03:01:54.876Z,99.90
2023-07-03T03:02:17.713Z,99.90
2023-07-03T03:02:40.658Z,99.90
2023-07-03T03:03:03.947Z,99.90
2023-07-03T03:03:27.152Z,99.90
2023-07-03T03:03:50.354Z,99.90
2023-07-03T03:04:13.509Z,99.90
2023-07-03T03:04:36.425Z,99.90
2023-07-03T03:04:59.254Z,99.90
2023-07-03T03:05:23.187Z,99.90
2023-07-03T03:05:45.968Z,99.90
2023-07-03T03:06:08.687Z,99.90
2023-07-03T03:06:31.477Z,99.90
2023-07-03T03:06:57.049Z,99.90
2023-07-03T03:07:19.840Z,99.90
2023-07-03T03:07:42.681Z,99.90
2023-07-03T03:08:06.023Z,99.90
2023-07-03T03:08:28.756Z,99.90
2023-07-03T03:08:54.705Z,99.90
2023-07-03T03:09:17.527Z,99.90
2023-07-03T03:09:41.360Z,99.90
2023-07-03T03:10:05.057Z,99.90
2023-07-03T03:10:27.788Z,99.90
2023-07-03T03:10:52.606Z,99.90
2023-07-03T03:11:15.676Z,99.90
2023-07-03T03:11:38.449Z,99.90
2023-07-03T03:12:01.212Z,99.90
2023-07-03T03:12:24.170Z,99.90
2023-07-03T03:12:49.235Z,99.90
2023-07-03T03:13:15.021Z,99.90
2023-07-03T03:13:37.851Z,99.90
2023-07-03T03:14:00.650Z,99.90
2023-07-03T03:14:23.365Z,99.90
2023-07-03T03:14:46.343Z,99.90
2023-07-03T03:15:09.760Z,99.90
2023-07-03T03:15:35.583Z,99.90
2023-07-03T03:15:59.131Z,99.90
2023-07-03T03:16:21.994Z,99.90
2023-07-03T03:16:44.837Z,99.90
2023-07-03T03:17:07.841Z,99.90
2023-07-03T03:17:30.831Z,99.90
2023-07-03T03:17:53.822Z,99.90
2023-07-03T03:18:16.596Z,99.90
2023-07-03T03:18:39.364Z,99.90
2023-07-03T03:19:02.948Z,99.90
2023-07-03T03:19:25.899Z,99.90
2023-07-03T03:19:51.405Z,99.90
2023-07-03T03:20:15.265Z,99.90
2023-07-03T03:20:38.270Z,99.90
2023-07-03T03:21:01.039Z,99.90
2023-07-03T03:21:24.091Z,99.90
2023-07-03T03:21:51.644Z,99.90
2023-07-03T03:22:14.621Z,99.90
2023-07-03T03:22:37.407Z,99.90
2023-07-03T03:23:00.227Z,99.90
2023-07-03T03:23:23.092Z,99.90
2023-07-03T03:23:47.169Z,99.90
2023-07-03T03:24:10.035Z,99.90
2023-07-03T03:24:32.870Z,99.90
2023-07-03T03:24:55.683Z,99.90
2023-07-03T03:25:18.463Z,99.90
2023-07-03T03:25:41.256Z,99.90
2023-07-03T03:26:08.249Z,99.90
2023-07-03T03:26:31.107Z,99.90
2023-07-03T03:26:54.040Z,99.90
2023-07-03T03:27:17.384Z,99.90
2023-07-03T03:27:40.444Z,99.90
2023-07-03T03:28:03.456Z,99.90
2023-07-03T03:28:26.285Z,99.90
2023-07-03T03:28:49.180Z,99.90
2023-07-03T03:29:11.996Z,99.90
2023-07-03T03:29:34.937Z,99.90
2023-07-03T03:29:57.778Z,99.90
2023-07-03T03:30:20.631Z,99.90
2023-07-03T03:30:44.469Z,99.90
2023-07-03T03:31:07.445Z,99.90
2023-07-03T03:31:30.220Z,99.90
2023-07-03T03:31:53.022Z,99.90
2023-07-03T03:32:15.948Z,99.90
2023-07-03T03:32:38.843Z,99.90
2023-07-03T03:33:01.793Z,99.90
2023-07-03T03:33:24.645Z,99.90
2023-07-03T03:33:47.489Z,99.90
2023-07-03T03:34:10.369Z,99.90
2023-07-03T03:34:35.794Z,99.90
2023-07-03T03:34:58.606Z,99.90
2023-07-03T03:35:21.460Z,99.90
2023-07-03T03:35:45.991Z,99.90
2023-07-03T03:36:08.863Z,99.90
2023-07-03T03:36:34.355Z,99.90
2023-07-03T03:36:57.851Z,99.90
2023-07-03T03:37:20.640Z,99.90
2023-07-03T03:37:43.467Z,99.90
2023-07-03T03:38:06.294Z,99.90
2023-07-03T03:38:29.125Z,99.90
2023-07-03T03:38:51.897Z,99.90
2023-07-03T03:39:16.810Z,99.90
2023-07-03T03:39:39.607Z,99.90
2023-07-03T03:40:02.354Z,99.90
2023-07-03T03:40:25.190Z,99.90
2023-07-03T03:40:54.726Z,99.90
2023-07-03T03:41:19.070Z,99.90
2023-07-03T03:41:41.938Z,99.90
2023-07-03T03:42:05.414Z,99.90
2023-07-03T03:42:28.216Z,99.90
2023-07-03T03:42:51.019Z,99.90
2023-07-03T03:43:13.829Z,99.90
2023-07-03T03:43:36.687Z,99.90
2023-07-03T03:44:00.544Z,99.90
2023-07-03T03:44:23.445Z,99.90
2023-07-03T03:44:46.299Z,99.90
2023-07-03T03:45:09.583Z,99.90
2023-07-03T03:45:32.394Z,99.90
2023-07-03T03:45:57.422Z,99.90
2023-07-03T03:46:20.391Z,99.90
2023-07-03T03:46:43.298Z,99.90
2023-07-03T03:47:06.470Z,99.90
2023-07-03T03:47:29.400Z,99.90
2023-07-03T03:47:53.051Z,99.90
2023-07-03T03:48:16.119Z,99.90
2023-07-03T03:48:39.138Z,99.90
2023-07-03T03:49:01.998Z,99.90
2023-07-03T03:49:24.861Z,99.90
2023-07-03T03:49:48.222Z,99.90
2023-07-03T03:50:11.494Z,99.90
2023-07-03T03:50:34.234Z,99.90
2023-07-03T03:50:57.171Z,99.90
2023-07-03T03:51:22.469Z,99.90
2023-07-03T03:51:45.229Z,99.90
2023-07-03T03:52:08.535Z,99.90
2023-07-03T03:52:31.345Z,99.90
2023-07-03T03:52:54.602Z,99.90
2023-07-03T03:53:17.460Z,99.90
2023-07-03T03:53:40.693Z,1.00
2023-07-03T03:54:04.034Z,99.90
2023-07-03T03:54:30.639Z,99.90
2023-07-03T03:54:53.584Z,1.00
2023-07-03T03:55:16.483Z,1.00
2023-07-03T03:55:39.262Z,1.00
2023-07-03T03:56:02.129Z,1.00
2023-07-03T03:56:28.786Z,1.00
2023-07-03T03:56:51.600Z,1.00
2023-07-03T03:57:16.788Z,1.00
2023-07-03T03:57:39.483Z,1.00
2023-07-03T03:58:02.283Z,1.00
2023-07-03T03:58:26.307Z,1.00
2023-07-03T03:58:49.257Z,1.00
2023-07-03T03:59:11.984Z,1.00
2023-07-03T03:59:34.890Z,1.00
2023-07-03T03:59:57.901Z,1.00
2023-07-03T04:00:21.386Z,1.00
2023-07-03T04:00:44.227Z,1.00
2023-07-03T04:01:07.043Z,1.00
2023-07-03T04:01:30.499Z,1.00
2023-07-03T04:01:53.386Z,1.00
2023-07-03T04:02:17.514Z,1.00
2023-07-03T04:02:40.608Z,1.00
2023-07-03T04:03:03.605Z,1.00
2023-07-03T04:03:28.880Z,1.00
2023-07-03T04:03:51.702Z,1.00
2023-07-03T04:04:15.368Z,1.00
2023-07-03T04:04:38.495Z,1.00
2023-07-03T04:05:02.461Z,1.00
2023-07-03T04:05:25.435Z,1.00
2023-07-03T04:05:49.117Z,1.00
2023-07-03T04:06:12.507Z,1.00
2023-07-03T04:06:39.169Z,1.00
2023-07-03T04:07:03.312Z,1.00
2023-07-03T04:07:26.080Z,1.00
2023-07-03T04:07:48.984Z,1.00
2023-07-03T04:08:11.734Z,1.00
2023-07-03T04:08:34.559Z,1.00
2023-07-03T04:09:00.142Z,1.00
2023-07-03T04:09:23.215Z,1.00
2023-07-03T04:09:46.063Z,1.00
2023-07-03T04:10:09.559Z,1.00
2023-07-03T04:10:32.663Z,1.00
2023-07-03T04:10:58.620Z,1.00
2023-07-03T04:11:21.934Z,1.00
2023-07-03T04:11:46.211Z,1.00
2023-07-03T04:12:09.274Z,1.00
2023-07-03T04:12:32.119Z,1.00
2023-07-03T04:12:54.927Z,1.00
2023-07-03T04:13:17.695Z,1.00
2023-07-03T04:13:40.680Z,1.00
2023-07-03T04:14:03.711Z,1.00
2023-07-03T04:14:27.005Z,1.00
2023-07-03T04:14:52.516Z,1.00
2023-07-03T04:15:15.549Z,1.00
2023-07-03T04:15:38.912Z,1.00
2023-07-03T04:16:03.136Z,1.00
2023-07-03T04:16:27.009Z,1.00
2023-07-03T04:16:49.995Z,1.00
2023-07-03T04:17:12.867Z,1.00
2023-07-03T04:17:35.842Z,1.00
2023-07-03T04:17:58.666Z,1.00
2023-07-03T04:18:21.752Z,1.00
2023-07-03T04:18:44.553Z,1.00
2023-07-03T04:19:07.865Z,1.00
2023-07-03T04:19:30.872Z,1.00
2023-07-03T04:19:53.598Z,1.00
2023-07-03T04:20:16.388Z,1.00
2023-07-03T04:20:39.206Z,1.00
2023-07-03T04:21:02.026Z,1.00
2023-07-03T04:21:25.096Z,1.00
2023-07-03T04:21:47.893Z,1.00
2023-07-03T04:22:10.734Z,1.00
2023-07-03T04:22:33.491Z,1.00
2023-07-03T04:22:56.358Z,1.00
2023-07-03T04:23:19.590Z,1.00
2023-07-03T04:23:42.315Z,1.00
2023-07-03T04:24:06.137Z,1.00
2023-07-03T04:24:29.012Z,1.00
2023-07-03T04:24:51.827Z,1.00
2023-07-03T04:25:15.145Z,1.00
2023-07-03T04:25:40.432Z,1.00
2023-07-03T04:26:04.072Z,1.00
2023-07-03T04:26:26.897Z,1.00
2023-07-03T04:26:55.680Z,1.00
2023-07-03T04:27:19.302Z,1.00
2023-07-03T04:27:42.257Z,1.00
2023-07-03T04:28:07.757Z,1.00
2023-07-03T04:28:30.627Z,1.00
2023-07-03T04:28:53.631Z,1.00
2023-07-03T04:29:18.955Z,1.00
2023-07-03T04:29:41.876Z,1.00
2023-07-03T04:30:05.738Z,1.00
2023-07-03T04:30:28.803Z,1.00
2023-07-03T04:30:51.496Z,1.00
2023-07-03T04:31:15.566Z,1.00
2023-07-03T04:31:40.806Z,1.00
2023-07-03T04:32:03.946Z,1.00
2023-07-03T04:32:26.977Z,1.00
2023-07-03T04:32:56.083Z,1.00
2023-07-03T04:33:18.969Z,1.00
2023-07-03T04:33:44.257Z,1.00
2023-07-03T04:34:07.269Z,1.00
2023-07-03T04:34:30.131Z,1.00
2023-07-03T04:34:53.007Z,1.00
2023-07-03T04:35:16.565Z,1.00
2023-07-03T04:35:39.368Z,1.00
2023-07-03T04:36:02.361Z,1.00
2023-07-03T04:36:25.153Z,1.00
2023-07-03T04:36:49.210Z,1.00
2023-07-03T04:37:12.045Z,1.00
2023-07-03T04:37:35.825Z,1.00
2023-07-03T04:37:58.698Z,1.00
2023-07-03T04:38:25.282Z,1.00
2023-07-03T04:38:48.290Z,1.00
2023-07-03T04:39:11.125Z,1.00
2023-07-03T04:39:34.061Z,1.00
2023-07-03T04:39:57.675Z,1.00
2023-07-03T04:40:20.683Z,1.00
2023-07-03T04:40:43.405Z,1.00
2023-07-03T04:41:06.276Z,1.00
2023-07-03T04:41:29.270Z,1.00
2023-07-03T04:41:53.470Z,1.00
2023-07-03T04:42:16.212Z,1.00
2023-07-03T04:42:38.957Z,1.00
2023-07-03T04:43:01.735Z,1.00
2023-07-03T04:43:27.731Z,1.00
2023-07-03T04:43:52.841Z,1.00
2023-07-03T04:44:15.636Z,1.00
2023-07-03T04:44:38.507Z,1.00
2023-07-03T04:45:03.320Z,1.00
2023-07-03T04:45:27.280Z,1.00
2023-07-03T04:45:52.781Z,1.00
2023-07-03T04:46:15.963Z,1.00
2023-07-03T04:46:40.256Z,1.00
2023-07-03T04:47:06.502Z,1.00
2023-07-03T04:47:29.300Z,1.00
2023-07-03T04:47:52.255Z,1.00
2023-07-03T04:48:15.205Z,1.00
2023-07-03T04:48:38.054Z,1.00
2023-07-03T04:49:01.769Z,1.00
2023-07-03T04:49:27.901Z,1.00
2023-07-03T04:49:50.753Z,1.00
2023-07-03T04:50:17.555Z,1.00
2023-07-03T04:50:40.324Z,1.00
2023-07-03T04:51:05.212Z,1.00
2023-07-03T04:51:32.085Z,1.00
2023-07-03T04:51:56.183Z,1.00
2023-07-03T04:52:21.023Z,1.00
2023-07-03T04:52:45.350Z,1.00
2023-07-03T04:53:08.155Z,1.00
2023-07-03T04:53:32.766Z,1.00
2023-07-03T04:53:55.668Z,1.00
2023-07-03T04:54:21.345Z,1.00
2023-07-03T04:54:44.143Z,1.00
2023-07-03T04:55:09.671Z,1.00
2023-07-03T04:55:32.664Z,1.00
2023-07-03T04:55:55.891Z,1.00
2023-07-03T04:56:18.945Z,1.00
2023-07-03T04:56:44.035Z,1.00
2023-07-03T04:57:09.049Z,1.00
2023-07-03T04:57:31.887Z,1.00
2023-07-03T04:57:54.695Z,1.00
2023-07-03T04:58:17.565Z,1.00
2023-07-03T04:58:40.548Z,1.00
2023-07-03T04:59:03.383Z,1.00
2023-07-03T04:59:26.095Z,1.00
2023-07-03T04:59:49.989Z,1.00
2023-07-03T05:00:17.537Z,1.00
2023-07-03T05:00:41.512Z,1.00
2023-07-03T05:01:06.191Z,99.90
2023-07-03T05:01:31.551Z,99.90
2023-07-03T05:01:54.700Z,99.90
2023-07-03T05:02:19.662Z,99.90
2023-07-03T05:02:43.074Z,99.90
2023-07-03T05:03:06.115Z,99.90
2023-07-03T05:03:29.123Z,99.90
2023-07-03T05:03:52.043Z,99.90
2023-07-03T05:04:14.971Z,99.90
2023-07-03T05:04:38.243Z,99.90
2023-07-03T05:05:01.198Z,99.90
2023-07-03T05:05:24.058Z,99.90
2023-07-03T05:05:46.989Z,99.90
2023-07-03T05:06:10.972Z,99.90
2023-07-03T05:06:33.798Z,99.90
2023-07-03T05:06:56.960Z,99.90
2023-07-03T05:07:22.518Z,99.90